Time;durP1;ratioP1;P1;durP2;ratioP2;P2;SDS_P1;SDS_P2;PMS_P1;PMS_P2;Temp;Humidity;BMP_temperature;BMP_pressure;BME280_temperature;BME280_humidity;BME280_pressure;Samples;Min_cycle;Max_cycle;Signal;HPM_P1;HPM_P2
2021/12/20 00:00:22;;;;;;;17.85;4.95;;;;;;;5.58;95.29;102732.19;4977020;28;20056;-75
2021/12/20 00:02:55;;;;;;;12.27;4.32;;;;;;;5.59;95.42;102728.56;4984108;28;20101;-77
2021/12/20 00:05:21;;;;;;;9.02;3.92;;;;;;;5.56;95.03;102716.97;4981819;28;20045;-77
2021/12/20 00:07:47;;;;;;;10.60;4.35;;;;;;;5.60;95.04;102726.78;4980522;28;20471;-76
2021/12/20 00:10:14;;;;;;;11.10;4.00;;;;;;;5.57;95.29;102725.00;4985632;28;20156;-77
2021/12/20 00:12:40;;;;;;;8.80;4.07;;;;;;;5.57;94.81;102726.81;4989949;28;20835;-76
2021/12/20 00:15:06;;;;;;;11.00;3.40;;;;;;;5.57;94.62;102732.22;4978514;28;20022;-76
2021/12/20 00:17:31;;;;;;;14.63;4.68;;;;;;;5.54;95.00;102721.47;4988865;28;20105;-76
2021/12/20 00:19:56;;;;;;;10.85;4.40;;;;;;;5.55;94.62;102728.69;4984593;28;20031;-77
2021/12/20 00:22:22;;;;;;;8.77;4.15;;;;;;;5.52;94.74;102720.63;4988092;28;20030;-77
2021/12/20 00:24:47;;;;;;;10.65;3.05;;;;;;;5.53;94.64;102715.19;4987800;28;20087;-75
2021/12/20 00:27:14;;;;;;;10.90;3.85;;;;;;;5.53;94.61;102719.72;4982707;28;20022;-75
2021/12/20 00:29:40;;;;;;;11.35;3.25;;;;;;;5.53;94.57;102722.41;4988554;28;20033;-75
2021/12/20 00:32:06;;;;;;;8.18;3.00;;;;;;;5.53;94.60;102723.28;4987674;28;20470;-77
2021/12/20 00:34:31;;;;;;;7.53;2.50;;;;;;;5.53;93.71;102722.41;4977952;28;20146;-75
2021/12/20 00:37:02;;;;;;;14.23;3.10;;;;;;;5.52;94.01;102718.81;4983843;28;20087;-77
2021/12/20 00:42:12;;;;;;;10.38;3.10;;;;;;;5.52;94.29;102713.44;4974827;28;20097;-77
2021/12/20 00:44:37;;;;;;;10.05;2.65;;;;;;;5.49;92.77;102713.47;4985982;28;20026;-75
2021/12/20 00:47:03;;;;;;;10.60;2.42;;;;;;;5.49;93.25;102712.59;4982505;28;20034;-77
2021/12/20 00:49:29;;;;;;;12.90;2.65;;;;;;;5.48;92.82;102708.13;4972677;28;20426;-77
2021/12/20 00:51:54;;;;;;;13.25;2.85;;;;;;;5.50;93.26;102708.97;4983888;28;20034;-76
2021/12/20 00:54:19;;;;;;;8.05;2.40;;;;;;;5.48;92.97;102713.53;4987458;28;20069;-75
2021/12/20 00:56:45;;;;;;;5.22;2.13;;;;;;;5.48;93.11;102710.81;4988291;28;20676;-76
2021/12/20 00:59:10;;;;;;;7.75;2.40;;;;;;;5.46;92.63;102709.97;4981184;28;20092;-77
2021/12/20 01:01:35;;;;;;;14.65;2.80;;;;;;;5.44;92.47;102717.19;4987015;28;20548;-75
2021/12/20 01:04:00;;;;;;;8.02;2.50;;;;;;;5.44;92.31;102712.69;4987176;28;20105;-77
2021/12/20 01:06:26;;;;;;;13.52;2.45;;;;;;;5.45;91.93;102706.38;4982058;28;20430;-77
2021/12/20 01:08:52;;;;;;;17.20;2.83;;;;;;;5.45;90.58;102716.28;4986906;28;20053;-75
2021/12/20 01:11:22;;;;;;;14.65;2.88;;;;;;;5.44;90.23;102715.38;4988145;28;20433;-77
2021/12/20 01:13:48;;;;;;;14.18;2.40;;;;;;;5.47;88.23;102709.06;4988448;28;20026;-77
2021/12/20 01:16:14;;;;;;;20.23;2.70;;;;;;;5.47;87.14;102720.72;4986371;28;20014;-77
2021/12/20 01:18:40;;;;;;;10.13;2.08;;;;;;;5.47;88.02;102714.44;4971391;28;20065;-77
2021/12/20 01:21:06;;;;;;;15.80;3.08;;;;;;;5.46;87.84;102709.97;4968943;28;20129;-78
2021/12/20 01:23:31;;;;;;;15.63;2.20;;;;;;;5.44;87.47;102719.91;4983406;28;20022;-75
2021/12/20 01:25:56;;;;;;;16.35;2.50;;;;;;;5.41;88.06;102717.25;4986011;28;20041;-76
2021/12/20 01:28:22;;;;;;;8.25;2.70;;;;;;;5.41;88.76;102718.19;4987571;28;20030;-77
2021/12/20 01:30:48;;;;;;;11.88;2.08;;;;;;;5.41;88.65;102711.84;4987084;28;20402;-77
2021/12/20 01:33:13;;;;;;;14.15;2.30;;;;;;;5.40;89.71;102708.28;4986605;28;20018;-76
2021/12/20 01:35:40;;;;;;;9.88;2.10;;;;;;;5.39;89.24;102703.81;4981085;28;20022;-77
2021/12/20 01:38:06;;;;;;;14.82;2.95;;;;;;;5.39;88.36;102703.81;4988104;28;20385;-76
2021/12/20 01:40:32;;;;;;;8.98;2.03;;;;;;;5.38;89.75;102702.91;4982284;28;20026;-74
2021/12/20 01:42:58;;;;;;;11.95;2.38;;;;;;;5.34;88.97;102706.59;4988129;28;20544;-77
2021/12/20 01:45:25;;;;;;;16.60;2.33;;;;;;;5.36;89.51;102703.84;4982986;28;20045;-77
2021/12/20 01:48:01;;;;;;;13.57;3.60;;;;;;;5.35;88.94;102702.09;4988064;28;20474;-77
2021/12/20 01:53:13;;;;;;;16.58;2.50;;;;;;;5.32;86.75;102697.66;4974722;28;20453;-77
2021/12/20 01:55:39;;;;;;;10.00;3.13;;;;;;;5.33;87.85;102710.22;4987187;28;20018;-77
2021/12/20 01:58:04;;;;;;;10.90;1.90;;;;;;;5.33;86.88;102710.22;4987392;28;20037;-77
2021/12/20 02:00:31;;;;;;;12.48;1.95;;;;;;;5.30;86.86;102704.88;4981614;28;20030;-76
2021/12/20 02:03:01;;;;;;;13.07;1.90;;;;;;;5.30;86.88;102698.59;4985455;28;20034;-75
2021/12/20 02:08:15;;;;;;;13.52;2.92;;;;;;;5.31;87.74;102689.56;4977654;28;20121;-75
2021/12/20 02:10:43;;;;;;;13.05;2.63;;;;;;;5.28;89.96;102697.75;4973382;28;20682;-76
2021/12/20 02:13:08;;;;;;;15.55;2.72;;;;;;;5.26;89.65;102695.06;4988122;28;20026;-77
2021/12/20 02:15:33;;;;;;;15.25;3.92;;;;;;;5.23;88.55;102689.75;4977257;28;20525;-77
2021/12/20 02:17:59;;;;;;;12.23;2.40;;;;;;;5.21;89.90;102696.97;4987655;28;20030;-77
2021/12/20 02:20:30;;;;;;;11.55;2.35;;;;;;;5.18;89.37;102685.38;4977493;28;20042;-75
2021/12/20 02:22:57;;;;;;;18.73;2.85;;;;;;;5.19;87.05;102692.53;4988210;28;20359;-76
2021/12/20 02:25:23;;;;;;;10.93;1.92;;;;;;;5.18;87.27;102688.97;4983287;28;20034;-76
2021/12/20 02:27:48;;;;;;;12.10;2.08;;;;;;;5.20;87.41;102694.31;4987695;28;20034;-78
2021/12/20 02:30:41;;;;;;;14.13;2.13;;;;;;;5.19;87.29;102696.13;4976936;28;20054;-77
2021/12/20 02:38:32;;;;;;;16.08;3.33;;;;;;;5.19;86.79;102679.94;4981362;28;20104;-77
2021/12/20 02:41:06;;;;;;;14.73;3.08;;;;;;;5.20;87.57;102683.53;4986626;28;20026;-76
2021/12/20 02:43:39;;;;;;;14.70;2.70;;;;;;;5.20;86.05;102689.81;4979905;28;20034;-78
2021/12/20 02:46:09;;;;;;;14.05;2.38;;;;;;;5.21;85.52;102690.69;4988170;28;20394;-77
2021/12/20 02:48:35;;;;;;;14.48;3.13;;;;;;;5.22;84.51;102690.69;4986161;28;20065;-76
2021/12/20 02:51:00;;;;;;;11.65;2.90;;;;;;;5.22;85.58;102692.47;4990004;28;20038;-77
2021/12/20 02:53:25;;;;;;;21.80;2.83;;;;;;;5.19;86.30;102677.25;4989295;28;20034;-77
2021/12/20 02:55:51;;;;;;;12.80;2.15;;;;;;;5.20;86.76;102678.13;4989917;28;20030;-76
2021/12/20 02:58:16;;;;;;;11.90;2.10;;;;;;;5.17;87.43;102676.38;4977379;28;20136;-77
2021/12/20 03:00:42;;;;;;;13.85;2.13;;;;;;;5.17;87.49;102680.88;4989911;28;20031;-74
2021/12/20 03:03:08;;;;;;;10.73;2.17;;;;;;;5.16;88.30;102681.81;4975525;28;20026;-75
2021/12/20 03:05:34;;;;;;;12.02;2.47;;;;;;;5.13;88.08;102682.78;4984872;28;20049;-77
2021/12/20 03:08:00;;;;;;;10.93;2.05;;;;;;;5.09;88.39;102683.75;4990798;28;20038;-75
2021/12/20 03:10:27;;;;;;;9.85;3.17;;;;;;;5.09;87.72;102681.94;4979669;28;20505;-76
2021/12/20 03:12:53;;;;;;;13.27;2.60;;;;;;;5.09;87.38;102681.06;4990091;28;20019;-76
2021/12/20 03:15:23;;;;;;;10.98;2.17;;;;;;;5.11;87.13;102690.00;4987182;28;20038;-75
2021/12/20 03:17:49;;;;;;;12.57;2.40;;;;;;;5.10;87.16;102696.31;4983710;28;20031;-74
2021/12/20 03:20:15;;;;;;;13.43;2.22;;;;;;;5.09;87.58;102690.03;4984591;28;20133;-77
2021/12/20 03:22:41;;;;;;;9.38;2.35;;;;;;;5.09;87.35;102681.94;4989645;28;20573;-76
2021/12/20 03:25:07;;;;;;;13.02;2.72;;;;;;;5.07;87.68;102685.56;4974890;28;20088;-76
2021/12/20 03:27:33;;;;;;;19.15;2.90;;;;;;;5.08;87.50;102673.84;4982962;28;20038;-75
2021/12/20 03:29:58;;;;;;;18.88;2.03;;;;;;;5.10;87.43;102686.41;4984741;28;20027;-76
2021/12/20 03:32:23;;;;;;;15.82;2.45;;;;;;;5.09;86.91;102683.75;4988935;28;20048;-75
2021/12/20 03:34:49;;;;;;;17.33;3.47;;;;;;;5.07;87.38;102689.16;4982814;28;20759;-75
2021/12/20 03:37:14;;;;;;;14.48;2.50;;;;;;;5.07;86.66;102685.56;4988787;28;20034;-76
2021/12/20 03:39:39;;;;;;;14.05;2.08;;;;;;;5.08;86.68;102685.56;4989893;28;20059;-76
2021/12/20 03:42:05;;;;;;;12.60;2.28;;;;;;;5.07;86.86;102685.56;4984436;28;20038;-75
2021/12/20 03:44:32;;;;;;;15.18;2.55;;;;;;;5.06;87.00;102684.69;4989460;28;20038;-76
2021/12/20 03:47:00;;;;;;;16.17;2.30;;;;;;;5.05;87.14;102685.63;4982175;28;20081;-77
2021/12/20 03:49:25;;;;;;;14.02;2.88;;;;;;;5.05;86.66;102690.13;4972925;28;20125;-77
2021/12/20 03:51:51;;;;;;;15.40;2.53;;;;;;;5.03;87.99;102678.47;4982420;28;20120;-76
2021/12/20 03:54:16;;;;;;;14.70;5.55;;;;;;;5.02;88.01;102684.78;4987780;28;20541;-76
2021/12/20 03:56:41;;;;;;;14.65;2.33;;;;;;;4.99;88.21;102674.97;4988566;28;20101;-76
2021/12/20 03:59:07;;;;;;;12.38;3.88;;;;;;;5.01;87.94;102686.59;4987219;28;20042;-76
2021/12/20 04:01:32;;;;;;;15.15;2.50;;;;;;;5.00;87.49;102683.94;4985547;28;20037;-77
2021/12/20 04:04:00;;;;;;;14.18;2.78;;;;;;;4.99;87.57;102693.84;4987470;28;20045;-76
2021/12/20 04:06:26;;;;;;;17.17;2.58;;;;;;;4.98;87.84;102689.34;4986723;28;20026;-77
2021/12/20 04:08:51;;;;;;;15.90;2.80;;;;;;;4.96;86.60;102683.09;4989015;28;20037;-75
2021/12/20 04:11:17;;;;;;;19.63;3.60;;;;;;;5.00;86.57;102681.22;4988633;28;20109;-77
2021/12/20 04:13:42;;;;;;;13.90;2.70;;;;;;;5.01;86.87;102677.63;4984343;28;20046;-75
2021/12/20 04:16:08;;;;;;;16.45;2.78;;;;;;;5.01;87.11;102680.31;4989155;28;20133;-76
2021/12/20 04:18:34;;;;;;;20.40;2.78;;;;;;;5.01;86.63;102681.19;4984411;28;20042;-74
2021/12/20 04:21:00;;;;;;;15.52;2.97;;;;;;;5.00;85.67;102679.44;4981314;28;20069;-77
2021/12/20 04:23:25;;;;;;;12.90;2.65;;;;;;;4.98;85.63;102681.25;4989647;28;20064;-77
2021/12/20 04:25:50;;;;;;;22.17;2.72;;;;;;;4.99;86.36;102684.81;4981599;28;20375;-77
2021/12/20 04:28:16;;;;;;;19.00;3.38;;;;;;;4.98;84.72;102683.94;4987915;28;20077;-78
2021/12/20 04:30:41;;;;;;;18.40;2.55;;;;;;;4.97;85.74;102682.16;4976889;28;20027;-77
2021/12/20 04:33:06;;;;;;;13.13;2.55;;;;;;;4.99;84.09;102682.13;4989339;28;20034;-74
2021/12/20 04:35:32;;;;;;;21.63;2.28;;;;;;;5.00;84.40;102683.94;4981303;28;20034;-77
2021/12/20 04:37:59;;;;;;;13.40;3.15;;;;;;;4.99;84.62;102688.44;4985746;28;20022;-77
2021/12/20 04:40:25;;;;;;;10.95;3.15;;;;;;;4.99;83.86;102680.34;4978871;28;20072;-77
2021/12/20 04:42:53;;;;;;;14.20;2.60;;;;;;;4.98;84.37;102670.47;4989851;28;20105;-77
2021/12/20 04:45:19;;;;;;;15.57;3.00;;;;;;;4.97;85.58;102671.38;4987333;28;20049;-76
2021/12/20 04:47:45;;;;;;;26.83;3.42;;;;;;;4.95;83.81;102678.63;4981879;28;20062;-78
2021/12/20 04:50:10;;;;;;;11.65;3.20;;;;;;;4.96;82.83;102676.81;4978451;28;20031;-75
2021/12/20 04:52:36;;;;;;;19.45;3.38;;;;;;;4.97;82.45;102674.09;4987759;28;20538;-78
2021/12/20 04:55:05;;;;;;;19.88;2.92;;;;;;;4.96;82.32;102679.50;4980228;28;20052;-77
2021/12/20 04:57:31;;;;;;;15.60;3.08;;;;;;;4.98;82.17;102685.75;4987257;28;20026;-78
2021/12/20 04:59:57;;;;;;;18.05;3.35;;;;;;;4.96;81.76;102680.41;4977843;28;20034;-77
2021/12/20 05:02:22;;;;;;;14.98;3.22;;;;;;;4.97;81.42;102679.47;4981965;28;20045;-77
2021/12/20 05:04:48;;;;;;;17.63;2.75;;;;;;;4.98;81.53;102680.34;4983206;28;20040;-77
2021/12/20 05:07:13;;;;;;;13.90;2.58;;;;;;;4.96;81.39;102680.41;4987593;28;20030;-77
2021/12/20 05:09:40;;;;;;;21.58;3.72;;;;;;;4.96;82.65;102676.81;4985162;28;20034;-77
2021/12/20 05:12:14;;;;;;;14.18;2.45;;;;;;;4.88;82.40;102676.94;4986538;28;20027;-78
2021/12/20 05:14:43;;;;;;;14.25;2.30;;;;;;;4.90;80.67;102691.31;4988311;28;20093;-76
2021/12/20 05:17:11;;;;;;;9.40;3.05;;;;;;;4.89;81.40;102681.41;4980625;28;20026;-77
2021/12/20 05:19:38;;;;;;;10.88;2.20;;;;;;;4.91;82.42;102692.19;4981778;28;20033;-76
2021/12/20 05:22:03;;;;;;;19.48;2.60;;;;;;;4.89;83.14;102681.41;4982716;28;20073;-76
2021/12/20 05:24:29;;;;;;;14.70;3.28;;;;;;;4.88;81.56;102684.16;4987399;28;20033;-75
2021/12/20 05:26:54;;;;;;;23.00;2.55;;;;;;;4.89;79.81;102686.81;4987344;28;20113;-76
2021/12/20 05:29:19;;;;;;;23.33;2.33;;;;;;;4.89;80.98;102683.22;4983931;28;20049;-76
2021/12/20 05:31:45;;;;;;;15.70;2.38;;;;;;;4.89;83.38;102680.53;4979209;28;20568;-76
2021/12/20 05:34:10;;;;;;;23.35;3.90;;;;;;;4.86;82.76;102689.59;4980519;28;20096;-77
2021/12/20 05:36:36;;;;;;;13.65;2.30;;;;;;;4.86;82.59;102684.19;4979852;28;20065;-75
2021/12/20 05:39:03;;;;;;;23.05;4.95;;;;;;;4.87;84.20;102685.97;4987975;28;20060;-77
2021/12/20 05:41:30;;;;;;;18.17;3.22;;;;;;;4.85;84.37;102690.53;4978325;28;20034;-77
2021/12/20 05:43:55;;;;;;;8.82;3.33;;;;;;;4.81;83.02;102689.69;4988193;28;20109;-77
2021/12/20 05:46:20;;;;;;;15.48;2.35;;;;;;;4.83;84.23;102687.81;4988282;28;20109;-77
2021/12/20 05:48:46;;;;;;;14.73;2.40;;;;;;;4.82;84.37;102694.16;4974500;28;20425;-77
2021/12/20 05:51:11;;;;;;;17.08;3.15;;;;;;;4.81;85.18;102692.38;4984479;28;20108;-74
2021/12/20 05:53:36;;;;;;;20.27;2.83;;;;;;;4.80;84.38;102687.91;4986598;28;20062;-78
2021/12/20 05:56:02;;;;;;;18.23;2.85;;;;;;;4.81;85.08;102686.97;4986977;28;20433;-76
2021/12/20 05:58:27;;;;;;;10.80;2.03;;;;;;;4.79;85.09;102696.88;4974048;28;20030;-78
2021/12/20 06:00:52;;;;;;;12.10;2.33;;;;;;;4.78;85.43;102700.50;4984512;28;20394;-77
2021/12/20 06:03:18;;;;;;;15.00;2.67;;;;;;;4.78;82.98;102695.13;4984627;28;20034;-77
2021/12/20 06:05:43;;;;;;;11.00;2.70;;;;;;;4.79;82.96;102694.19;4973247;28;20687;-75
2021/12/20 06:08:09;;;;;;;22.08;3.92;;;;;;;4.78;83.03;102692.41;4987596;28;20035;-76
2021/12/20 06:10:35;;;;;;;17.98;2.47;;;;;;;4.78;83.33;102694.22;4985217;28;20036;-77
2021/12/20 06:13:02;;;;;;;14.45;2.58;;;;;;;4.77;81.91;102692.47;4977187;28;20026;-77
2021/12/20 06:15:27;;;;;;;16.50;2.83;;;;;;;4.84;81.27;102699.50;4983755;28;20121;-77
2021/12/20 06:17:53;;;;;;;12.90;3.33;;;;;;;4.82;82.18;102694.16;4987140;28;20101;-76
2021/12/20 06:20:19;;;;;;;16.45;3.80;;;;;;;4.85;80.61;102695.91;4979203;28;20471;-77
2021/12/20 06:22:44;;;;;;;19.38;3.95;;;;;;;4.84;81.38;102694.09;4990236;28;20037;-76
2021/12/20 06:25:10;;;;;;;9.05;2.15;;;;;;;4.86;80.76;102706.66;4981696;28;20109;-76
2021/12/20 06:27:36;;;;;;;15.75;2.75;;;;;;;4.86;81.39;102701.25;4988422;28;20041;-76
2021/12/20 06:30:03;;;;;;;15.75;2.47;;;;;;;4.83;80.83;102698.63;4990256;28;20031;-76
2021/12/20 06:32:28;;;;;;;19.50;2.42;;;;;;;4.86;80.65;102703.06;4988357;28;20030;-77
2021/12/20 06:34:54;;;;;;;18.30;3.25;;;;;;;4.85;82.30;102704.00;4982790;28;20534;-76
2021/12/20 06:37:19;;;;;;;17.05;3.40;;;;;;;4.83;81.30;102712.09;4987945;28;20041;-76
2021/12/20 06:39:44;;;;;;;10.15;2.70;;;;;;;4.83;81.72;102711.22;4982707;28;20750;-77
2021/12/20 06:42:10;;;;;;;12.15;2.67;;;;;;;4.82;80.14;102698.66;4983571;28;20435;-76
2021/12/20 06:44:35;;;;;;;18.50;3.42;;;;;;;4.83;81.21;102717.50;4990008;28;20018;-75
2021/12/20 06:47:00;;;;;;;12.10;2.83;;;;;;;4.78;83.29;102715.81;4987187;28;20026;-77
2021/12/20 06:49:26;;;;;;;20.35;2.65;;;;;;;4.75;81.76;102715.84;4983069;28;20038;-77
2021/12/20 06:51:53;;;;;;;17.65;3.35;;;;;;;4.72;84.27;102715.91;4990975;28;20474;-74
2021/12/20 06:54:19;;;;;;;16.75;2.60;;;;;;;4.71;83.69;102716.81;4987061;28;20522;-75
2021/12/20 06:56:45;;;;;;;20.65;3.55;;;;;;;4.71;80.86;102722.22;4987724;28;20105;-77
2021/12/20 06:59:11;;;;;;;29.58;3.92;;;;;;;4.73;82.63;102728.47;4984389;28;20030;-76
2021/12/20 07:01:37;;;;;;;16.00;2.58;;;;;;;4.71;83.96;102720.44;4987591;28;20030;-75
2021/12/20 07:04:03;;;;;;;28.02;3.70;;;;;;;4.70;84.77;102726.72;4989730;28;20037;-75
2021/12/20 07:06:29;;;;;;;16.27;2.45;;;;;;;4.68;83.98;102724.97;4979016;28;20026;-77
2021/12/20 07:08:55;;;;;;;17.05;3.28;;;;;;;4.66;83.83;102724.97;4985494;28;20026;-77
2021/12/20 07:11:20;;;;;;;17.10;3.20;;;;;;;4.66;83.92;102726.78;4976842;28;20518;-76
2021/12/20 07:13:46;;;;;;;15.30;3.25;;;;;;;4.68;82.62;102736.66;4990696;28;20018;-78
2021/12/20 07:16:12;;;;;;;11.02;2.72;;;;;;;4.69;82.68;102729.44;4988836;28;20022;-78
2021/12/20 07:18:38;;;;;;;17.48;2.83;;;;;;;4.69;82.22;102733.03;4984678;28;20108;-78
2021/12/20 07:21:03;;;;;;;15.60;3.50;;;;;;;4.70;83.45;102737.50;4983307;28;20457;-77
2021/12/20 07:23:28;;;;;;;13.77;2.65;;;;;;;4.68;83.83;102725.88;4990848;28;20552;-76
2021/12/20 07:25:53;;;;;;;13.23;2.72;;;;;;;4.66;83.74;102724.09;4988959;28;20038;-76
2021/12/20 07:28:19;;;;;;;19.75;6.05;;;;;;;4.66;83.62;102727.69;4979947;28;20062;-76
2021/12/20 07:30:46;;;;;;;18.52;3.10;;;;;;;4.65;83.46;102731.28;4989803;28;20112;-76
2021/12/20 07:33:11;;;;;;;16.50;3.42;;;;;;;4.64;82.97;102734.91;4986263;28;20030;-76
2021/12/20 07:35:37;;;;;;;15.77;3.55;;;;;;;4.65;82.54;102728.59;4981370;28;20486;-77
2021/12/20 07:38:03;;;;;;;14.15;3.05;;;;;;;4.66;83.13;102729.50;4989327;28;20022;-76
2021/12/20 07:40:29;;;;;;;21.17;3.58;;;;;;;4.62;84.70;102728.69;4986706;28;20124;-77
2021/12/20 07:42:55;;;;;;;15.45;3.33;;;;;;;4.61;82.79;102726.88;4989550;28;20140;-78
2021/12/20 07:45:20;;;;;;;11.35;2.88;;;;;;;4.63;83.15;102729.56;4989680;28;20049;-76
2021/12/20 07:47:50;;;;;;;11.70;2.88;;;;;;;4.60;83.92;102728.69;4988676;28;20030;-76
2021/12/20 07:50:17;;;;;;;15.38;2.50;;;;;;;4.63;82.75;102733.16;4986775;28;20030;-76
2021/12/20 07:52:43;;;;;;;16.58;5.03;;;;;;;4.64;82.98;102736.72;4985635;28;20102;-75
2021/12/20 07:55:09;;;;;;;12.45;2.50;;;;;;;4.64;83.61;102737.63;4981379;28;20389;-76
2021/12/20 07:57:35;;;;;;;15.85;2.80;;;;;;;4.61;84.50;102740.34;4989920;28;20062;-77
2021/12/20 08:00:00;;;;;;;15.13;3.22;;;;;;;4.60;83.30;102742.16;4988254;28;20513;-76
2021/12/20 08:02:25;;;;;;;12.52;2.65;;;;;;;4.59;84.13;102751.16;4971886;28;20039;-76
2021/12/20 08:04:51;;;;;;;20.38;2.70;;;;;;;4.60;86.76;102746.66;4978445;28;20058;-77
2021/12/20 08:07:21;;;;;;;12.57;2.83;;;;;;;4.59;85.76;102740.38;4980049;28;20046;-75
2021/12/20 08:09:46;;;;;;;16.83;2.97;;;;;;;4.61;85.11;102741.25;4986158;28;20034;-78
2021/12/20 08:12:12;;;;;;;14.35;2.92;;;;;;;4.61;86.82;102749.31;4989166;28;20092;-78
2021/12/20 08:14:37;;;;;;;17.38;4.65;;;;;;;4.60;87.38;102744.84;4975964;28;20133;-78
2021/12/20 08:17:02;;;;;;;14.25;2.92;;;;;;;4.61;87.69;102751.13;4976566;28;20034;-78
2021/12/20 08:19:28;;;;;;;5.10;2.63;;;;;;;4.59;88.60;102744.91;4981076;28;20037;-76
2021/12/20 08:21:53;;;;;;;15.63;3.17;;;;;;;4.58;87.08;102745.81;4986757;28;20566;-77
2021/12/20 08:24:18;;;;;;;12.43;2.75;;;;;;;4.58;87.50;102754.78;4981476;28;20038;-75
2021/12/20 08:26:44;;;;;;;10.20;2.72;;;;;;;4.59;86.55;102769.16;4979740;28;20031;-77
2021/12/20 08:29:09;;;;;;;17.27;3.40;;;;;;;4.60;87.22;102762.84;4982294;28;20153;-76
2021/12/20 08:31:36;;;;;;;9.95;3.10;;;;;;;4.59;87.03;102755.66;4983128;28;20026;-78
2021/12/20 08:34:02;;;;;;;17.33;4.00;;;;;;;4.60;88.35;102741.28;4978611;28;20031;-77
2021/12/20 08:36:27;;;;;;;13.40;3.88;;;;;;;4.64;87.41;102761.00;4981666;28;20026;-74
2021/12/20 08:38:53;;;;;;;13.77;3.90;;;;;;;4.66;88.62;102754.63;4989334;28;20525;-74
2021/12/20 08:41:18;;;;;;;13.57;3.50;;;;;;;4.64;88.17;102745.69;4980074;28;20022;-77
2021/12/20 08:43:44;;;;;;;14.23;3.30;;;;;;;4.65;89.17;102755.56;4981871;28;20525;-76
2021/12/20 08:46:10;;;;;;;17.30;3.67;;;;;;;4.70;86.99;102758.19;4979618;28;20077;-76
2021/12/20 08:48:36;;;;;;;10.30;3.22;;;;;;;4.74;86.51;102766.19;4982190;28;20030;-75
2021/12/20 08:51:02;;;;;;;12.77;3.33;;;;;;;4.75;85.72;102765.25;4981561;28;20034;-76
2021/12/20 08:53:28;;;;;;;12.65;2.88;;;;;;;4.78;87.39;102759.81;4983277;28;20375;-76
2021/12/20 08:55:54;;;;;;;12.13;3.20;;;;;;;4.80;88.46;102755.31;4982107;28;20018;-75
2021/12/20 08:58:21;;;;;;;17.02;3.28;;;;;;;4.82;86.44;102756.16;4985824;28;20061;-75
2021/12/20 09:00:46;;;;;;;19.63;3.60;;;;;;;4.85;85.49;102758.81;4985183;28;20049;-74
2021/12/20 09:03:12;;;;;;;22.60;3.97;;;;;;;4.89;86.71;102756.03;4986937;28;20030;-77
2021/12/20 09:05:37;;;;;;;14.88;4.28;;;;;;;4.89;87.38;102756.94;4977664;28;20506;-77
2021/12/20 09:08:04;;;;;;;19.75;4.82;;;;;;;4.93;86.22;102757.78;4984944;28;20038;-76
2021/12/20 09:10:31;;;;;;;13.60;3.42;;;;;;;4.98;86.70;102754.06;4978965;28;20171;-76
2021/12/20 09:12:57;;;;;;;18.13;3.65;;;;;;;5.00;82.93;102763.03;4981421;28;20019;-75
2021/12/20 09:15:22;;;;;;;19.90;3.65;;;;;;;5.04;84.76;102764.75;4982388;28;20486;-76
2021/12/20 09:17:52;;;;;;;10.13;3.00;;;;;;;5.08;83.62;102773.66;4984188;28;20101;-76
2021/12/20 09:20:20;;;;;;;12.18;2.60;;;;;;;5.07;83.04;102769.19;4978140;28;20117;-77
2021/12/20 09:22:52;;;;;;;12.75;3.65;;;;;;;5.14;83.67;102778.09;4984619;28;20045;-77
2021/12/20 09:25:23;;;;;;;16.75;4.28;;;;;;;5.16;84.74;102774.41;4987116;28;20018;-74
2021/12/20 09:27:50;;;;;;;17.10;2.85;;;;;;;5.18;82.71;102775.31;4982506;28;20062;-76
2021/12/20 09:30:16;;;;;;;16.42;3.03;;;;;;;5.20;81.46;102781.53;4985049;28;20026;-76
2021/12/20 09:32:41;;;;;;;15.88;3.60;;;;;;;5.23;82.30;102781.50;4978513;28;20543;-77
2021/12/20 09:35:08;;;;;;;12.00;2.13;;;;;;;5.24;79.93;102787.78;4977393;28;20366;-75
2021/12/20 09:37:34;;;;;;;11.13;3.53;;;;;;;5.26;81.43;102781.41;4972606;28;20137;-75
2021/12/20 09:40:00;;;;;;;13.63;3.08;;;;;;;5.28;81.44;102778.72;4985947;28;20164;-77
2021/12/20 09:42:26;;;;;;;15.45;3.13;;;;;;;5.30;81.11;102787.66;4981497;28;20073;-77
2021/12/20 09:44:53;;;;;;;13.85;3.00;;;;;;;5.31;80.68;102789.41;4980760;28;20398;-76
2021/12/20 09:47:19;;;;;;;18.13;3.30;;;;;;;5.31;81.74;102790.31;4977826;28;20088;-77
2021/12/20 09:49:45;;;;;;;15.05;3.30;;;;;;;5.36;82.00;102791.13;4970641;28;20030;-77
2021/12/20 09:52:10;;;;;;;10.75;3.15;;;;;;;5.40;81.45;102799.16;4987455;28;20033;-75
2021/12/20 09:54:37;;;;;;;17.52;2.90;;;;;;;5.42;81.26;102797.34;4983079;28;20018;-77
2021/12/20 09:57:06;;;;;;;17.83;3.03;;;;;;;5.44;80.92;102804.47;4979887;28;20026;-76
2021/12/20 09:59:37;;;;;;;20.15;3.30;;;;;;;5.45;83.10;102791.84;4982038;28;20382;-75
2021/12/20 10:02:06;;;;;;;15.95;2.88;;;;;;;5.46;81.32;102781.03;4974327;28;20065;-76
2021/12/20 10:04:32;;;;;;;21.05;3.03;;;;;;;5.51;80.85;102798.03;4978319;28;20046;-76
2021/12/20 10:06:59;;;;;;;19.38;3.28;;;;;;;5.53;82.14;102788.09;4986597;28;20061;-78
2021/12/20 10:09:28;;;;;;;14.70;2.63;;;;;;;5.58;80.29;102785.28;4979565;28;20034;-77
2021/12/20 10:12:11;;;;;;;17.52;2.72;;;;;;;5.61;81.93;102788.81;4977038;28;20061;-77
2021/12/20 10:15:01;;;;;;;11.20;2.55;;;;;;;5.65;82.19;102792.34;4977541;28;20089;-77
2021/12/20 10:17:50;;;;;;;13.27;3.95;;;;;;;5.65;80.59;102802.28;4976472;28;20053;-77
2021/12/20 10:20:19;;;;;;;15.57;2.47;;;;;;;5.64;80.02;102798.66;4982758;28;20484;-78
2021/12/20 10:22:44;;;;;;;14.63;2.70;;;;;;;5.63;80.02;102797.78;4981190;28;20152;-76
2021/12/20 10:25:40;;;;;;;13.55;2.88;;;;;;;5.67;81.34;102795.03;4978778;28;20026;-78
2021/12/20 10:28:10;;;;;;;13.45;3.03;;;;;;;5.67;81.14;102793.22;4982199;28;20513;-78
2021/12/20 10:30:39;;;;;;;16.65;3.40;;;;;;;5.67;79.79;102801.31;4979133;28;20034;-76
2021/12/20 10:33:08;;;;;;;14.73;2.80;;;;;;;5.67;81.78;102785.09;4979835;28;20030;-76
2021/12/20 10:35:40;;;;;;;19.33;3.58;;;;;;;5.72;79.99;102787.72;4978096;28;20038;-78
2021/12/20 10:38:19;;;;;;;22.92;3.85;;;;;;;5.71;79.95;102788.63;4983602;28;20027;-78
2021/12/20 10:40:51;;;;;;;16.02;2.97;;;;;;;5.69;79.44;102785.06;4979520;28;20632;-76
2021/12/20 10:43:25;;;;;;;8.73;2.40;;;;;;;5.70;80.02;102795.84;4975865;28;20429;-76
2021/12/20 10:45:52;;;;;;;25.42;3.22;;;;;;;5.72;79.94;102785.91;4980407;28;20041;-78
2021/12/20 10:48:18;;;;;;;17.98;3.28;;;;;;;5.74;78.88;102796.69;4978428;28;20109;-77
2021/12/20 10:50:44;;;;;;;15.68;3.35;;;;;;;5.76;79.55;102800.22;4978785;28;20054;-77
2021/12/20 10:53:16;;;;;;;10.23;3.53;;;;;;;5.79;79.78;102792.06;4984556;28;20573;-78
2021/12/20 10:55:51;;;;;;;16.27;3.75;;;;;;;5.78;79.78;102790.28;4976642;28;20038;-78
2021/12/20 10:58:38;;;;;;;12.85;2.30;;;;;;;5.82;79.87;102779.38;4973599;28;20031;-75
2021/12/20 11:01:13;;;;;;;14.40;3.42;;;;;;;5.84;80.00;102780.25;4981742;28;20034;-74
2021/12/20 11:03:41;;;;;;;16.27;2.88;;;;;;;5.82;79.02;102773.97;4984061;28;20109;-75
2021/12/20 11:06:24;;;;;;;12.95;2.85;;;;;;;5.87;78.39;102788.28;4984211;28;20058;-74
2021/12/20 11:09:05;;;;;;;16.25;2.80;;;;;;;5.87;79.39;102780.19;4989317;28;20117;-78
2021/12/20 11:11:35;;;;;;;14.95;3.40;;;;;;;5.91;79.08;102777.41;4983593;28;20109;-76
2021/12/20 11:14:03;;;;;;;11.85;3.08;;;;;;;5.96;79.22;102783.63;4976327;28;20132;-76
2021/12/20 11:16:34;;;;;;;8.15;2.72;;;;;;;5.98;78.58;102776.38;4974484;28;20550;-79
2021/12/20 11:19:06;;;;;;;16.42;2.58;;;;;;;6.00;78.15;102782.63;4981907;28;20027;-75
2021/12/20 11:21:31;;;;;;;15.57;2.55;;;;;;;5.97;76.82;102766.47;4980924;28;20151;-77
2021/12/20 11:23:59;;;;;;;12.68;2.58;;;;;;;6.00;77.49;102779.94;4984576;28;20120;-78
2021/12/20 11:26:24;;;;;;;14.70;3.67;;;;;;;6.01;77.69;102771.78;4975115;28;20060;-76
2021/12/20 11:28:51;;;;;;;11.18;2.40;;;;;;;6.02;79.13;102770.88;4988326;28;20038;-75
2021/12/20 11:31:17;;;;;;;14.30;2.50;;;;;;;6.07;77.52;102762.69;4981365;28;20104;-78
2021/12/20 11:33:42;;;;;;;13.82;3.55;;;;;;;6.05;78.04;102770.78;4982053;28;20062;-76
2021/12/20 11:36:07;;;;;;;18.45;2.70;;;;;;;6.05;78.48;102772.59;4974742;28;20026;-75
2021/12/20 11:38:34;;;;;;;14.40;3.20;;;;;;;6.04;77.91;102777.13;4983731;28;20057;-75